createdAt,value
2023-05-17T00:01:13.160Z,67.20
2023-05-17T00:03:41.440Z,67.16
2023-05-17T00:06:11.002Z,66.93
2023-05-17T00:08:38.831Z,66.99
2023-05-17T00:11:06.625Z,67.44
2023-05-17T00:13:34.292Z,68.41
2023-05-17T00:16:02.032Z,68.30
2023-05-17T00:18:30.035Z,68.66
2023-05-17T00:20:57.885Z,69.22
2023-05-17T00:23:27.082Z,69.72
2023-05-17T00:25:54.950Z,69.73
2023-05-17T00:28:22.937Z,69.31
2023-05-17T00:30:51.018Z,68.51
2023-05-17T00:33:18.759Z,68.37
2023-05-17T00:35:46.457Z,68.46
2023-05-17T00:38:14.106Z,67.85
2023-05-17T00:40:43.225Z,67.82
2023-05-17T00:43:11.245Z,67.72
2023-05-17T00:45:38.998Z,67.50
2023-05-17T00:48:07.157Z,67.39
2023-05-17T00:50:36.145Z,67.13
2023-05-17T00:53:04.015Z,67.04
2023-05-17T00:55:31.844Z,67.61
2023-05-17T00:58:01.422Z,67.50
2023-05-17T01:00:30.309Z,67.79
2023-05-17T01:02:58.167Z,67.59
2023-05-17T01:05:29.025Z,67.66
2023-05-17T01:07:57.112Z,67.44
2023-05-17T01:10:32.207Z,68.11
2023-05-17T01:13:10.733Z,68.09
2023-05-17T01:15:44.223Z,68.71
2023-05-17T01:18:22.899Z,68.60
2023-05-17T01:20:53.905Z,68.65
2023-05-17T01:23:31.387Z,68.46
2023-05-17T01:26:07.643Z,68.79
2023-05-17T01:28:39.735Z,69.01
2023-05-17T01:31:09.448Z,69.44
2023-05-17T01:33:38.058Z,69.32
2023-05-17T01:36:06.780Z,69.59
2023-05-17T01:38:34.527Z,69.34
2023-05-17T01:41:08.891Z,69.48
2023-05-17T01:43:44.762Z,69.58
2023-05-17T01:46:20.010Z,69.17
2023-05-17T01:48:54.512Z,69.64
2023-05-17T01:51:25.038Z,69.57
2023-05-17T01:53:58.230Z,69.67
2023-05-17T01:56:34.397Z,69.72
2023-05-17T01:59:05.652Z,69.21
2023-05-17T02:01:33.826Z,69.26
2023-05-17T02:04:01.677Z,68.81
2023-05-17T02:06:29.566Z,69.40
2023-05-17T02:08:59.942Z,69.12
2023-05-17T02:11:27.770Z,69.21
2023-05-17T02:13:55.437Z,69.34
2023-05-17T02:16:24.535Z,69.51
2023-05-17T02:18:52.300Z,69.53
2023-05-17T02:21:20.189Z,69.73
2023-05-17T02:23:47.921Z,69.70
2023-05-17T02:26:15.635Z,69.60
2023-05-17T02:28:43.410Z,69.96
2023-05-17T02:31:11.578Z,69.88
2023-05-17T02:33:40.838Z,70.05
2023-05-17T02:36:08.958Z,70.59
2023-05-17T02:38:36.667Z,70.77
2023-05-17T02:41:04.411Z,70.83
2023-05-17T02:43:32.188Z,70.79
2023-05-17T02:45:59.907Z,71.29
2023-05-17T02:48:27.583Z,72.08
2023-05-17T02:50:56.737Z,72.20
2023-05-17T02:53:24.494Z,73.08
2023-05-17T02:55:52.482Z,72.46
2023-05-17T02:58:20.211Z,72.71
2023-05-17T03:00:47.969Z,72.39
2023-05-17T03:03:16.094Z,72.91
2023-05-17T03:05:44.225Z,72.63
2023-05-17T03:08:13.361Z,72.73
2023-05-17T03:10:41.190Z,71.88
2023-05-17T03:13:08.904Z,72.31
2023-05-17T03:15:36.880Z,72.59
2023-05-17T03:18:04.870Z,72.46
2023-05-17T03:20:32.613Z,73.42
2023-05-17T03:23:00.529Z,73.03
2023-05-17T03:25:29.856Z,73.18
2023-05-17T03:27:57.658Z,72.96
2023-05-17T03:30:25.392Z,73.51
2023-05-17T03:32:54.180Z,73.92
2023-05-17T03:35:22.319Z,74.38
2023-05-17T03:37:49.971Z,73.81
2023-05-17T03:40:17.782Z,73.60
2023-05-17T03:42:47.249Z,73.61
2023-05-17T03:45:14.895Z,73.13
2023-05-17T03:47:43.256Z,73.46
2023-05-17T03:50:11.783Z,73.19
2023-05-17T03:52:41.919Z,73.46
2023-05-17T03:55:10.639Z,73.10
2023-05-17T03:57:38.555Z,72.38
2023-05-17T04:00:11.735Z,72.71
2023-05-17T04:02:39.570Z,72.48
2023-05-17T04:05:07.950Z,72.34
2023-05-17T04:07:36.042Z,73.03
2023-05-17T04:10:03.812Z,73.24
2023-05-17T04:12:31.465Z,72.77
2023-05-17T04:14:59.387Z,73.18
2023-05-17T04:17:29.127Z,72.86
2023-05-17T04:19:57.064Z,72.03
2023-05-17T04:22:24.952Z,72.15
2023-05-17T04:24:52.715Z,72.31
2023-05-17T04:27:21.930Z,72.23
2023-05-17T04:29:49.726Z,71.28
2023-05-17T04:32:18.954Z,70.50
2023-05-17T04:34:48.119Z,70.33
2023-05-17T04:37:16.287Z,70.17
2023-05-17T04:39:44.348Z,69.34
2023-05-17T04:42:12.118Z,69.34
2023-05-17T04:44:39.828Z,69.03
2023-05-17T04:47:08.171Z,69.70
2023-05-17T04:49:36.048Z,68.89
2023-05-17T04:52:06.379Z,68.67
2023-05-17T04:54:34.065Z,67.52
2023-05-17T04:57:01.951Z,67.62
2023-05-17T04:59:29.785Z,67.12
2023-05-17T05:01:57.686Z,66.41
2023-05-17T05:04:25.594Z,66.56
2023-05-17T05:06:53.429Z,66.36
2023-05-17T05:09:22.539Z,66.54
2023-05-17T05:11:50.367Z,65.41
2023-05-17T05:14:18.055Z,65.22
2023-05-17T05:16:45.937Z,65.20
2023-05-17T05:19:13.830Z,64.95
2023-05-17T05:21:41.867Z,64.05
2023-05-17T05:24:09.753Z,63.82
2023-05-17T05:26:38.860Z,63.39
2023-05-17T05:29:06.822Z,62.70
2023-05-17T05:31:34.632Z,63.07
2023-05-17T05:34:02.527Z,61.80
2023-05-17T05:36:30.955Z,61.75
2023-05-17T05:39:01.240Z,60.93
2023-05-17T05:41:29.099Z,59.96
2023-05-17T05:44:00.403Z,60.86
2023-05-17T05:46:28.173Z,59.49
2023-05-17T05:48:55.879Z,59.05
2023-05-17T05:51:23.769Z,59.15
2023-05-17T05:53:51.492Z,58.82
2023-05-17T05:56:19.189Z,58.79
2023-05-17T05:58:47.058Z,58.01
2023-05-17T06:01:16.136Z,57.95
2023-05-17T06:03:43.813Z,58.10
2023-05-17T06:06:11.788Z,58.09
2023-05-17T06:08:39.541Z,58.18
2023-05-17T06:11:07.596Z,57.62
2023-05-17T06:13:35.366Z,58.32
2023-05-17T06:16:03.060Z,58.51
2023-05-17T06:18:32.212Z,57.13
2023-05-17T06:21:00.474Z,55.57
2023-05-17T06:23:28.264Z,55.77
2023-05-17T06:25:56.013Z,56.39
2023-05-17T06:28:23.855Z,55.28
2023-05-17T06:30:51.577Z,55.58
2023-05-17T06:33:19.518Z,55.77
2023-05-17T06:35:56.567Z,54.92
2023-05-17T06:38:25.864Z,55.60
2023-05-17T06:40:54.893Z,55.33
2023-05-17T06:43:23.007Z,54.79
2023-05-17T06:45:50.858Z,55.80
2023-05-17T06:48:18.883Z,55.85
2023-05-17T06:50:48.124Z,55.68
2023-05-17T06:53:16.049Z,55.12
2023-05-17T06:55:43.947Z,54.68
2023-05-17T06:58:11.729Z,53.85
2023-05-17T07:00:39.539Z,53.86
2023-05-17T07:03:07.327Z,53.91
2023-05-17T07:05:36.226Z,54.23
2023-05-17T07:08:05.942Z,54.39
2023-05-17T07:10:33.735Z,52.55
2023-05-17T07:13:01.555Z,50.73
2023-05-17T07:15:30.091Z,49.52
2023-05-17T07:17:59.308Z,48.62
2023-05-17T07:20:27.147Z,46.82
2023-05-17T07:22:54.909Z,48.14
2023-05-17T07:25:23.939Z,48.38
2023-05-17T07:27:51.680Z,49.60
2023-05-17T07:30:19.398Z,48.70
2023-05-17T07:32:47.204Z,48.93
2023-05-17T07:35:15.393Z,48.79
2023-05-17T07:37:43.580Z,47.96
2023-05-17T07:40:12.207Z,50.37
2023-05-17T07:42:41.503Z,52.13
2023-05-17T07:45:10.728Z,51.90
2023-05-17T07:47:38.752Z,51.33
2023-05-17T07:50:07.952Z,51.60
2023-05-17T07:52:35.783Z,52.43
2023-05-17T07:55:04.058Z,50.85
2023-05-17T07:57:32.130Z,49.74
2023-05-17T08:00:01.311Z,49.47
2023-05-17T08:02:32.071Z,51.55
2023-05-17T08:05:00.119Z,53.32
2023-05-17T08:07:28.021Z,54.42
2023-05-17T08:09:56.694Z,54.34
2023-05-17T08:12:24.372Z,53.37
2023-05-17T08:14:52.169Z,53.07
2023-05-17T08:17:22.347Z,53.53
2023-05-17T08:19:50.382Z,53.08
2023-05-17T08:22:18.311Z,54.30
2023-05-17T08:24:46.191Z,52.53
2023-05-17T08:27:13.940Z,52.97
2023-05-17T08:29:41.766Z,53.63
2023-05-17T08:32:09.603Z,53.75
2023-05-17T08:34:39.171Z,54.51
2023-05-17T08:37:07.068Z,54.34
2023-05-17T08:39:34.962Z,54.20
2023-05-17T08:42:03.201Z,56.03
2023-05-17T08:44:31.074Z,54.70
2023-05-17T08:47:00.516Z,54.41
2023-05-17T08:49:30.135Z,55.77
2023-05-17T08:52:01.663Z,55.46
2023-05-17T08:54:29.918Z,53.88
2023-05-17T08:57:02.154Z,54.25
2023-05-17T08:59:34.041Z,52.23
2023-05-17T09:02:02.778Z,52.87
2023-05-17T09:04:31.192Z,51.17
2023-05-17T09:07:00.316Z,52.52
2023-05-17T09:09:28.412Z,50.91
2023-05-17T09:11:56.438Z,51.97
2023-05-17T09:14:24.170Z,51.15
2023-05-17T09:16:58.350Z,51.69
2023-05-17T09:19:26.230Z,50.14
2023-05-17T09:21:55.272Z,50.72
2023-05-17T09:24:31.010Z,51.12
2023-05-17T09:27:03.007Z,52.33
2023-05-17T09:29:32.506Z,51.91
2023-05-17T09:32:13.922Z,51.16
2023-05-17T09:34:42.807Z,49.03
2023-05-17T09:37:19.562Z,47.31
2023-05-17T09:39:49.438Z,45.53
2023-05-17T09:42:18.561Z,45.27
2023-05-17T09:44:48.240Z,45.88
2023-05-17T09:47:23.893Z,46.13
2023-05-17T09:49:52.043Z,46.69
2023-05-17T09:52:20.938Z,44.15
2023-05-17T09:54:54.739Z,44.64
2023-05-17T09:57:23.073Z,44.62
2023-05-17T09:59:51.468Z,44.40
2023-05-17T10:02:25.767Z,44.71
2023-05-17T10:04:54.082Z,44.09
2023-05-17T10:07:22.693Z,45.22
2023-05-17T10:09:51.345Z,44.74
2023-05-17T10:12:24.332Z,44.18
2023-05-17T10:14:55.867Z,43.46
2023-05-17T10:17:24.445Z,43.52
2023-05-17T10:19:52.949Z,43.56
2023-05-17T10:22:23.911Z,42.72
2023-05-17T10:24:52.732Z,45.15
2023-05-17T10:27:22.582Z,44.34
2023-05-17T10:29:51.470Z,44.16
2023-05-17T10:32:22.924Z,44.33
2023-05-17T10:35:06.085Z,45.24
2023-05-17T10:37:37.981Z,45.00
2023-05-17T10:40:06.783Z,45.14
2023-05-17T10:42:36.199Z,46.70
2023-05-17T10:45:04.595Z,46.86
2023-05-17T10:47:35.568Z,45.93
2023-05-17T10:50:10.158Z,44.70
2023-05-17T10:52:40.149Z,44.97
2023-05-17T10:55:09.077Z,44.31
2023-05-17T10:57:50.525Z,44.22
2023-05-17T11:00:22.001Z,41.14
2023-05-17T11:02:50.929Z,41.09
2023-05-17T11:05:25.831Z,43.32
2023-05-17T11:07:54.205Z,42.14
2023-05-17T11:10:22.652Z,42.29
2023-05-17T11:12:57.802Z,40.16
2023-05-17T11:15:27.145Z,39.13
2023-05-17T11:17:56.259Z,42.22
2023-05-17T11:20:36.873Z,42.66
2023-05-17T11:23:07.063Z,41.89
2023-05-17T11:25:36.940Z,42.91
2023-05-17T11:28:11.179Z,44.39
2023-05-17T11:30:43.496Z,44.36
2023-05-17T11:33:24.963Z,43.35
2023-05-17T11:35:57.650Z,44.36
2023-05-17T11:38:31.706Z,44.32
2023-05-17T11:41:01.313Z,45.25
2023-05-17T11:43:31.102Z,44.65
2023-05-17T11:46:01.501Z,44.52
2023-05-17T11:48:31.828Z,43.60
2023-05-17T11:51:02.151Z,41.43
2023-05-17T11:53:32.323Z,41.60
2023-05-17T11:56:04.093Z,41.97
2023-05-17T11:58:33.834Z,40.59
2023-05-17T12:01:01.783Z,40.70
2023-05-17T12:03:30.893Z,40.72
2023-05-17T12:06:07.753Z,40.34
2023-05-17T12:08:38.060Z,38.35
2023-05-17T12:11:07.412Z,38.40
2023-05-17T12:13:37.052Z,36.99
2023-05-17T12:16:08.745Z,38.18
2023-05-17T12:18:38.429Z,37.43
2023-05-17T12:21:07.394Z,37.70
2023-05-17T12:23:36.601Z,38.27
2023-05-17T12:26:09.374Z,38.25
2023-05-17T12:28:40.140Z,40.12
2023-05-17T12:31:11.087Z,38.90
2023-05-17T12:33:41.700Z,39.24
2023-05-17T12:36:10.996Z,40.54
2023-05-17T12:38:41.058Z,39.80
2023-05-17T12:41:11.746Z,39.47
2023-05-17T12:43:41.609Z,40.72
2023-05-17T12:46:11.572Z,41.08
2023-05-17T12:48:43.924Z,39.82
2023-05-17T12:51:13.824Z,40.78
2023-05-17T12:53:43.867Z,39.62
2023-05-17T12:56:17.960Z,41.17
2023-05-17T12:59:05.415Z,39.77
2023-05-17T13:01:37.527Z,37.82
2023-05-17T13:04:05.848Z,36.55
2023-05-17T13:06:45.766Z,37.22
2023-05-17T13:09:14.309Z,35.43
2023-05-17T13:11:42.663Z,34.74
2023-05-17T13:14:13.192Z,34.96
2023-05-17T13:16:41.366Z,33.77
2023-05-17T13:19:15.956Z,34.34
2023-05-17T13:21:43.683Z,36.18
2023-05-17T13:24:11.853Z,35.51
2023-05-17T13:26:39.527Z,37.82
2023-05-17T13:29:07.291Z,37.54
2023-05-17T13:31:36.364Z,36.99
2023-05-17T13:34:04.204Z,36.02
2023-05-17T13:36:32.004Z,34.43
2023-05-17T13:39:01.881Z,33.06
2023-05-17T13:41:29.675Z,33.84
2023-05-17T13:43:57.694Z,36.88
2023-05-17T13:46:25.526Z,35.54
2023-05-17T13:48:54.901Z,34.43
2023-05-17T13:51:22.634Z,31.86
2023-05-17T13:53:50.584Z,34.53
2023-05-17T13:56:18.693Z,36.77
2023-05-17T13:58:46.470Z,34.69
2023-05-17T14:01:14.652Z,34.42
2023-05-17T14:03:42.504Z,35.61
2023-05-17T14:06:11.710Z,36.67
2023-05-17T14:08:40.860Z,36.96
2023-05-17T14:11:08.671Z,36.38
2023-05-17T14:13:36.715Z,35.59
2023-05-17T14:16:04.406Z,35.21
2023-05-17T14:18:32.606Z,37.17
2023-05-17T14:21:01.151Z,36.28
2023-05-17T14:23:30.550Z,37.14
2023-05-17T14:25:58.736Z,35.99
2023-05-17T14:28:26.720Z,34.53
2023-05-17T14:30:54.555Z,36.46
2023-05-17T14:33:22.870Z,35.76
2023-05-17T14:35:50.642Z,34.71
2023-05-17T14:38:20.371Z,34.97
2023-05-17T14:40:49.748Z,34.09
2023-05-17T14:43:17.625Z,32.15
2023-05-17T14:45:45.325Z,33.56
2023-05-17T14:48:13.207Z,33.78
2023-05-17T14:50:41.029Z,35.12
2023-05-17T14:53:08.871Z,33.49
2023-05-17T14:55:36.913Z,34.00
2023-05-17T14:58:06.426Z,32.95
2023-05-17T15:00:34.747Z,32.39
2023-05-17T15:03:03.201Z,31.63
2023-05-17T15:05:31.259Z,32.69
2023-05-17T15:07:59.186Z,32.74
2023-05-17T15:10:26.946Z,33.54
2023-05-17T15:12:54.680Z,34.33
2023-05-17T15:15:23.755Z,35.10
2023-05-17T15:17:52.025Z,34.18
2023-05-17T15:20:20.576Z,32.93
2023-05-17T15:22:48.576Z,32.77
2023-05-17T15:25:16.850Z,32.88
2023-05-17T15:27:44.671Z,31.65
2023-05-17T15:30:14.205Z,31.94
2023-05-17T15:32:43.232Z,33.08
2023-05-17T15:35:11.287Z,33.52
2023-05-17T15:37:39.057Z,33.91
2023-05-17T15:40:09.595Z,32.16
2023-05-17T15:42:37.640Z,32.34
2023-05-17T15:45:06.338Z,32.45
2023-05-17T15:47:43.181Z,33.61
2023-05-17T15:50:13.124Z,32.93
2023-05-17T15:52:43.100Z,32.69
2023-05-17T15:55:12.350Z,33.22
2023-05-17T15:57:40.616Z,34.08
2023-05-17T16:00:09.658Z,34.23
2023-05-17T16:02:37.904Z,32.70
2023-05-17T16:05:06.485Z,32.67
2023-05-17T16:07:35.541Z,33.08
2023-05-17T16:10:05.526Z,33.38
2023-05-17T16:12:33.296Z,33.07
2023-05-17T16:15:00.950Z,34.06
2023-05-17T16:17:28.743Z,34.03
2023-05-17T16:19:56.543Z,34.67
2023-05-17T16:22:24.273Z,34.05
2023-05-17T16:24:55.231Z,33.10
2023-05-17T16:27:23.090Z,35.25
2023-05-17T16:29:50.846Z,35.07
2023-05-17T16:32:18.819Z,34.75
2023-05-17T16:34:46.484Z,34.68
2023-05-17T16:37:14.303Z,34.99
2023-05-17T16:39:42.265Z,36.04
2023-05-17T16:42:11.560Z,36.34
2023-05-17T16:44:39.300Z,36.32
2023-05-17T16:47:07.240Z,35.91
2023-05-17T16:49:36.576Z,35.88
2023-05-17T16:52:04.829Z,36.16
2023-05-17T16:54:33.693Z,36.03
2023-05-17T16:57:02.382Z,36.11
2023-05-17T16:59:32.074Z,36.42
2023-05-17T17:01:59.971Z,36.99
2023-05-17T17:04:27.773Z,37.05
2023-05-17T17:06:55.437Z,37.46
2023-05-17T17:09:23.177Z,37.71
2023-05-17T17:11:51.080Z,37.34
2023-05-17T17:14:18.844Z,37.48
2023-05-17T17:16:47.978Z,37.41
2023-05-17T17:19:15.996Z,36.64
2023-05-17T17:21:43.753Z,36.54
2023-05-17T17:24:11.660Z,36.52
2023-05-17T17:26:39.564Z,37.55
2023-05-17T17:29:08.143Z,37.25
2023-05-17T17:31:35.825Z,37.26
2023-05-17T17:34:05.348Z,37.18
2023-05-17T17:36:33.095Z,37.99
2023-05-17T17:39:00.829Z,38.30
2023-05-17T17:41:28.619Z,38.33
2023-05-17T17:43:56.484Z,38.61
2023-05-17T17:46:25.521Z,39.13
2023-05-17T17:48:54.473Z,39.08
2023-05-17T17:51:25.819Z,39.29
2023-05-17T17:53:54.070Z,38.88
2023-05-17T17:56:23.809Z,39.44
2023-05-17T17:58:53.568Z,40.18
2023-05-17T18:01:21.571Z,39.88
2023-05-17T18:03:49.413Z,40.56
2023-05-17T18:06:17.184Z,40.47
2023-05-17T18:08:46.914Z,40.76
2023-05-17T18:11:14.614Z,41.76
2023-05-17T18:13:42.310Z,41.09
2023-05-17T18:16:10.133Z,41.40
2023-05-17T18:18:40.618Z,41.24
2023-05-17T18:21:08.823Z,41.46
2023-05-17T18:23:36.665Z,41.59
2023-05-17T18:26:06.254Z,41.60
2023-05-17T18:28:42.276Z,41.59
2023-05-17T18:31:10.622Z,41.68
2023-05-17T18:33:38.639Z,41.78
2023-05-17T18:36:07.520Z,41.84
2023-05-17T18:38:35.641Z,41.78
2023-05-17T18:41:05.147Z,42.63
2023-05-17T18:43:33.382Z,43.33
2023-05-17T18:46:01.561Z,42.84
2023-05-17T18:48:29.851Z,44.57
2023-05-17T18:50:57.818Z,44.42
2023-05-17T18:53:26.403Z,45.02
2023-05-17T18:55:54.268Z,45.99
2023-05-17T18:58:23.596Z,44.44
2023-05-17T19:00:51.563Z,44.50
2023-05-17T19:03:19.417Z,45.11
2023-05-17T19:05:47.252Z,46.11
2023-05-17T19:08:15.215Z,45.85
2023-05-17T19:10:43.206Z,46.51
2023-05-17T19:13:11.352Z,47.03
2023-05-17T19:15:41.557Z,48.81
2023-05-17T19:18:09.837Z,50.97
2023-05-17T19:20:38.030Z,52.58
2023-05-17T19:23:06.793Z,53.65
2023-05-17T19:25:34.760Z,53.53
2023-05-17T19:28:02.657Z,55.09
2023-05-17T19:30:32.754Z,55.77
2023-05-17T19:33:02.546Z,56.51
2023-05-17T19:35:30.643Z,57.01
2023-05-17T19:37:58.658Z,57.04
2023-05-17T19:40:26.824Z,57.75
2023-05-17T19:42:54.700Z,59.54
2023-05-17T19:45:22.759Z,58.81
2023-05-17T19:47:50.688Z,59.20
2023-05-17T19:50:20.050Z,60.04
2023-05-17T19:52:48.377Z,60.19
2023-05-17T19:55:21.879Z,61.23
2023-05-17T19:57:49.917Z,61.47
2023-05-17T20:00:18.733Z,62.28
2023-05-17T20:02:47.391Z,63.39
2023-05-17T20:05:17.147Z,63.53
2023-05-17T20:07:46.308Z,63.18
2023-05-17T20:10:14.402Z,63.80
2023-05-17T20:12:42.285Z,63.85
2023-05-17T20:15:11.266Z,64.21
2023-05-17T20:17:39.116Z,63.69
2023-05-17T20:20:08.075Z,64.02
2023-05-17T20:22:37.304Z,64.91
2023-05-17T20:25:07.302Z,64.93
2023-05-17T20:27:35.163Z,65.39
2023-05-17T20:30:02.945Z,64.47
2023-05-17T20:32:30.915Z,66.19
2023-05-17T20:34:58.789Z,65.77
2023-05-17T20:37:27.229Z,66.42
2023-05-17T20:39:56.655Z,65.67
2023-05-17T20:42:26.306Z,66.19
2023-05-17T20:44:54.916Z,64.66
2023-05-17T20:47:22.964Z,65.93
2023-05-17T20:49:51.002Z,65.11
2023-05-17T20:52:31.413Z,65.20
2023-05-17T20:55:07.603Z,62.34
2023-05-17T20:57:36.932Z,61.34
2023-05-17T21:00:06.430Z,59.32
2023-05-17T21:02:34.464Z,58.93
2023-05-17T21:05:03.331Z,59.24
2023-05-17T21:07:31.329Z,60.55
2023-05-17T21:09:59.430Z,60.01
2023-05-17T21:12:27.514Z,60.60
2023-05-17T21:15:14.529Z,62.50
2023-05-17T21:17:44.234Z,64.23
2023-05-17T21:20:13.228Z,63.58
2023-05-17T21:22:41.233Z,63.41
2023-05-17T21:25:10.716Z,62.32
2023-05-17T21:27:38.612Z,61.43
2023-05-17T21:30:10.930Z,60.55
2023-05-17T21:32:39.306Z,60.38
2023-05-17T21:35:07.800Z,59.16
2023-05-17T21:37:37.077Z,59.84
2023-05-17T21:40:05.312Z,58.66
2023-05-17T21:42:33.712Z,58.03
2023-05-17T21:45:01.700Z,58.06
2023-05-17T21:47:31.013Z,57.66
2023-05-17T21:49:59.124Z,57.97
2023-05-17T21:52:27.095Z,57.86
2023-05-17T21:54:54.933Z,58.80
2023-05-17T21:57:22.819Z,58.82
2023-05-17T21:59:51.978Z,59.56
2023-05-17T22:02:20.185Z,58.38
2023-05-17T22:04:49.478Z,57.85
2023-05-17T22:07:17.362Z,57.21
2023-05-17T22:09:46.631Z,56.99
2023-05-17T22:12:14.735Z,56.69
2023-05-17T22:14:44.611Z,57.12
2023-05-17T22:17:13.021Z,56.31
2023-05-17T22:19:41.612Z,56.69
2023-05-17T22:22:10.807Z,56.54
2023-05-17T22:24:38.989Z,56.40
2023-05-17T22:27:07.244Z,56.43
2023-05-17T22:29:35.343Z,56.38
2023-05-17T22:32:03.265Z,56.68
2023-05-17T22:34:31.889Z,56.04
2023-05-17T22:36:59.939Z,55.98
2023-05-17T22:39:29.390Z,56.60
2023-05-17T22:41:57.462Z,56.44
2023-05-17T22:44:26.307Z,57.04
2023-05-17T22:46:57.644Z,56.83
2023-05-17T22:49:25.945Z,57.18
2023-05-17T22:51:54.511Z,56.69
2023-05-17T22:54:22.258Z,56.86
2023-05-17T22:56:51.661Z,57.98
2023-05-17T22:59:19.511Z,57.72
2023-05-17T23:01:47.378Z,57.53
2023-05-17T23:04:15.446Z,57.71
2023-05-17T23:06:43.351Z,57.82
2023-05-17T23:09:11.556Z,57.91
2023-05-17T23:11:41.380Z,57.65
2023-05-17T23:14:11.381Z,57.62
2023-05-17T23:16:39.471Z,57.36
2023-05-17T23:19:07.451Z,57.81
2023-05-17T23:21:36.320Z,57.43
2023-05-17T23:24:04.019Z,57.43
2023-05-17T23:26:33.954Z,57.51
2023-05-17T23:29:03.561Z,57.03
2023-05-17T23:31:33.906Z,57.03
2023-05-17T23:34:01.832Z,57.43
2023-05-17T23:36:29.523Z,57.05
2023-05-17T23:38:57.247Z,57.10
2023-05-17T23:41:25.517Z,56.80
2023-05-17T23:43:53.244Z,57.11
2023-05-17T23:46:21.986Z,57.38
2023-05-17T23:48:51.242Z,57.74
2023-05-17T23:51:20.361Z,57.50
2023-05-17T23:53:49.089Z,57.92
2023-05-17T23:56:17.720Z,57.53
2023-05-17T23:58:45.634Z,57.75
